createdAt,value
2019-05-25T09:22:50.729Z,100536.06
2019-05-25T09:33:12.732Z,100542.11
2019-05-25T09:43:34.850Z,100546.66
2019-05-25T09:53:56.914Z,100558.03
2019-05-25T10:04:19.018Z,100567.73
2019-05-25T10:14:41.161Z,100581.33
2019-05-25T10:24:59.084Z,100587.39
2019-05-25T10:35:22.616Z,100585.89
2019-05-25T10:39:52.486Z,100573.70
2019-05-25T10:43:14.518Z,100571.72
2019-05-25T10:46:36.589Z,100573.39
2019-05-25T10:49:58.718Z,100587.52
2019-05-25T10:53:20.842Z,100583.27
2019-05-25T10:56:42.878Z,100583.15
2019-05-25T11:00:05.001Z,100577.70
2019-05-25T11:03:27.029Z,100573.40
2019-05-25T11:06:49.192Z,100581.30
2019-05-25T11:10:13.327Z,100578.47
2019-05-25T11:13:35.458Z,100579.56
2019-05-25T11:16:57.602Z,100572.69
2019-05-25T11:20:20.122Z,100590.27
2019-05-25T11:23:42.186Z,100579.86
2019-05-25T11:27:04.369Z,100582.04
2019-05-25T11:30:27.931Z,100578.17
2019-05-25T11:33:50.002Z,100566.50
2019-05-25T11:37:15.451Z,100587.48
2019-05-25T11:40:37.183Z,100589.17
2019-05-25T11:43:59.324Z,100575.73
2019-05-25T11:47:21.380Z,100573.13
2019-05-25T11:50:43.513Z,100574.42
2019-05-25T11:54:05.582Z,100571.96
2019-05-25T11:57:27.683Z,100576.51
2019-05-25T12:00:51.687Z,100593.77
2019-05-25T12:04:13.550Z,100590.22
2019-05-25T12:07:35.567Z,100586.53
2019-05-25T12:10:57.621Z,100581.88
2019-05-25T12:14:19.677Z,100605.36
2019-05-25T12:17:41.734Z,100632.17
2019-05-25T12:21:03.846Z,100598.06
2019-05-25T12:24:26.012Z,100600.28
2019-05-25T12:27:51.023Z,100592.97
2019-05-25T12:31:13.078Z,100596.84
2019-05-25T12:34:35.149Z,100601.97
2019-05-25T12:37:57.245Z,100608.48
2019-05-25T12:41:19.285Z,100608.02
2019-05-25T12:44:41.399Z,100603.56
2019-05-25T12:48:04.380Z,100596.72
2019-05-25T12:51:26.447Z,100602.00
2019-05-25T12:54:48.470Z,100593.81
2019-05-25T12:58:10.603Z,100628.62
2019-05-25T13:01:32.623Z,100599.40
2019-05-25T13:04:54.661Z,100608.71
2019-05-25T13:08:16.682Z,100606.71
2019-05-25T13:11:38.746Z,100588.44
2019-05-25T13:15:00.885Z,100614.98
2019-05-25T13:18:22.940Z,100610.27
2019-05-25T13:21:44.999Z,100606.02
2019-05-25T13:25:07.100Z,100598.27
2019-05-25T13:28:29.169Z,100591.44
2019-05-25T13:31:51.228Z,100592.55
2019-05-25T13:35:13.449Z,100596.71
2019-05-25T13:38:35.986Z,100591.05
2019-05-25T13:41:58.000Z,100585.97
2019-05-25T13:45:20.437Z,100581.23
2019-05-25T13:48:42.475Z,100603.63
2019-05-25T13:52:04.500Z,100594.28
2019-05-25T13:55:28.308Z,100589.02
2019-05-25T13:58:51.269Z,100577.91
2019-05-25T14:02:13.331Z,100597.05
2019-05-25T14:05:35.386Z,100586.95
2019-05-25T14:08:57.424Z,100588.94
2019-05-25T14:12:19.659Z,100584.89
2019-05-25T14:15:41.755Z,100593.33
2019-05-25T14:19:03.777Z,100588.71
2019-05-25T14:22:25.957Z,100605.14
2019-05-25T14:25:47.979Z,100603.09
2019-05-25T14:29:10.127Z,100596.27
2019-05-25T14:32:32.422Z,100582.81
2019-05-25T14:35:54.545Z,100592.59
2019-05-25T14:39:18.191Z,100589.77
2019-05-25T14:42:40.383Z,100568.52
2019-05-25T14:46:02.440Z,100579.98
2019-05-25T14:49:25.426Z,100578.04
2019-05-25T14:52:47.504Z,100582.10
2019-05-25T14:56:09.584Z,100575.99
2019-05-25T14:59:31.618Z,100587.31
2019-05-25T15:02:53.678Z,100590.70
2019-05-25T15:06:20.532Z,100573.55
2019-05-25T15:09:39.705Z,100573.94
2019-05-25T15:13:01.737Z,100576.78
2019-05-25T15:16:23.793Z,100578.45
2019-05-25T15:19:45.886Z,100573.16
2019-05-25T15:23:07.956Z,100584.33
2019-05-25T15:26:30.083Z,100579.66
2019-05-25T15:29:52.122Z,100575.50
2019-05-25T15:33:14.193Z,100579.23
2019-05-25T15:36:36.389Z,100576.66
2019-05-25T15:39:58.428Z,100579.60
2019-05-25T15:43:20.502Z,100577.16
2019-05-25T15:46:42.687Z,100580.85
2019-05-25T15:50:04.803Z,100609.72
2019-05-25T15:53:26.822Z,100580.87
2019-05-25T15:56:48.851Z,100597.30
2019-05-25T16:00:14.259Z,100591.00
2019-05-25T16:03:36.905Z,100574.75
2019-05-25T16:06:59.379Z,100610.50
2019-05-25T16:10:23.707Z,100590.03
2019-05-25T16:13:45.774Z,100583.28
2019-05-25T16:17:07.842Z,100588.44
2019-05-25T16:20:33.098Z,100593.41
2019-05-25T16:23:58.094Z,100596.70
2019-05-25T16:27:22.834Z,100597.82
2019-05-25T16:30:44.871Z,100587.78
2019-05-25T16:34:06.927Z,100581.62
2019-05-25T16:37:29.183Z,100594.62
2019-05-25T16:40:52.996Z,100596.97
2019-05-25T16:44:15.175Z,100583.66
2019-05-25T16:47:37.241Z,100595.08
2019-05-25T16:51:00.077Z,100600.77
2019-05-25T16:54:22.255Z,100595.80
2019-05-25T16:57:44.286Z,100585.77
2019-05-25T17:01:07.601Z,100601.05
2019-05-25T17:04:30.476Z,100605.59
2019-05-25T17:07:54.284Z,100600.13
2019-05-25T17:11:16.383Z,100600.61
2019-05-25T17:14:38.394Z,100602.77
2019-05-25T17:18:04.423Z,100601.02
2019-05-25T17:21:24.298Z,100629.37
2019-05-25T17:24:46.338Z,100608.62
2019-05-25T17:28:08.440Z,100598.62
2019-05-25T17:31:32.212Z,100617.90
2019-05-25T17:34:54.440Z,100614.55
2019-05-25T17:38:16.499Z,100621.41
2019-05-25T17:41:38.560Z,100622.94
2019-05-25T17:45:03.414Z,100625.13
2019-05-25T17:48:25.599Z,100633.24
2019-05-25T17:51:47.642Z,100629.87
2019-05-25T17:55:12.322Z,100635.55
2019-05-25T17:58:34.545Z,100634.53
2019-05-25T18:01:56.666Z,100639.70
2019-05-25T18:05:19.200Z,100633.39
2019-05-25T18:08:46.077Z,100634.48
2019-05-25T18:12:08.690Z,100638.84
2019-05-25T18:15:31.177Z,100632.05
2019-05-25T18:18:53.397Z,100640.70
2019-05-25T18:22:16.022Z,100634.34
2019-05-25T18:25:38.117Z,100638.95
2019-05-25T18:29:01.777Z,100637.45
2019-05-25T18:32:24.906Z,100629.91
2019-05-25T18:35:47.275Z,100637.75
2019-05-25T18:39:11.027Z,100635.64
2019-05-25T18:42:34.839Z,100645.86
2019-05-25T18:45:56.978Z,100652.65
2019-05-25T18:49:19.426Z,100644.96
2019-05-25T18:52:41.622Z,100644.81
2019-05-25T18:56:03.838Z,100641.62
2019-05-25T18:59:25.926Z,100654.14
2019-05-25T19:02:47.974Z,100652.67
2019-05-25T19:06:10.048Z,100652.67
2019-05-25T19:09:32.543Z,100658.70
2019-05-25T19:12:54.737Z,100659.52
2019-05-25T19:16:16.793Z,100660.27
2019-05-25T19:19:38.897Z,100660.33
2019-05-25T19:23:01.214Z,100665.02
2019-05-25T19:26:23.283Z,100671.02
2019-05-25T19:29:45.547Z,100668.88
2019-05-25T19:33:10.232Z,100663.66
2019-05-25T19:36:37.005Z,100674.68
2019-05-25T19:39:59.105Z,100666.42
2019-05-25T19:43:21.245Z,100667.53
2019-05-25T19:46:50.371Z,100671.70
2019-05-25T19:50:13.215Z,100667.68
2019-05-25T19:53:35.300Z,100671.31
2019-05-25T19:56:58.013Z,100670.67
2019-05-25T20:00:20.955Z,100675.67
2019-05-25T20:03:43.087Z,100674.86
2019-05-25T20:07:05.224Z,100671.25
2019-05-25T20:10:30.401Z,100685.95
2019-05-25T20:13:52.460Z,100685.23
2019-05-25T20:17:14.530Z,100692.56
2019-05-25T20:20:37.393Z,100682.79
2019-05-25T20:24:01.267Z,100683.16
2019-05-25T20:27:23.376Z,100682.62
2019-05-25T20:30:45.415Z,100688.56
2019-05-25T20:34:07.487Z,100687.62
2019-05-25T20:37:31.241Z,100698.07
2019-05-25T20:40:53.269Z,100690.34
2019-05-25T20:44:15.349Z,100686.62
2019-05-25T20:47:37.544Z,100691.16
2019-05-25T20:50:59.577Z,100683.34
2019-05-25T20:54:21.657Z,100687.16
2019-05-25T20:57:43.708Z,100683.08
2019-05-25T21:01:05.771Z,100688.72
2019-05-25T21:04:27.803Z,100688.89
2019-05-25T21:07:49.822Z,100685.37
2019-05-25T21:11:11.875Z,100681.73
2019-05-25T21:14:33.937Z,100689.17
2019-05-25T21:17:56.007Z,100686.92
2019-05-25T21:21:18.705Z,100683.29
2019-05-25T21:24:40.736Z,100680.12
2019-05-25T21:28:02.797Z,100683.20
2019-05-25T21:31:24.860Z,100686.83
2019-05-25T21:34:47.000Z,100693.39
2019-05-25T21:38:09.060Z,100699.91
2019-05-25T21:41:31.122Z,100690.57
2019-05-25T21:44:53.182Z,100689.83
2019-05-25T21:48:15.348Z,100691.11
2019-05-25T21:51:38.299Z,100690.65
2019-05-25T21:55:00.335Z,100690.46
2019-05-25T21:58:22.455Z,100695.02
2019-05-25T22:01:44.540Z,100689.48
2019-05-25T22:05:06.616Z,100687.20
2019-05-25T22:08:28.687Z,100688.92
2019-05-25T22:11:53.762Z,100693.02
2019-05-25T22:15:17.204Z,100685.47
2019-05-25T22:18:39.250Z,100689.20
2019-05-25T22:22:01.339Z,100683.55
2019-05-25T22:25:25.055Z,100697.54
2019-05-25T22:28:47.106Z,100679.02
2019-05-25T22:32:09.140Z,100683.38
2019-05-25T22:35:31.354Z,100683.45
2019-05-25T22:38:53.388Z,100679.71
2019-05-25T22:42:15.554Z,100679.79
2019-05-25T22:45:37.697Z,100669.94
2019-05-25T22:48:59.741Z,100670.98
2019-05-25T22:52:21.905Z,100675.88
2019-05-25T22:55:43.987Z,100675.20
2019-05-25T22:59:06.044Z,100675.88
2019-05-25T23:02:28.187Z,100665.70
2019-05-25T23:05:53.030Z,100662.16
2019-05-25T23:09:15.155Z,100673.42
2019-05-25T23:12:37.423Z,100664.42
2019-05-25T23:15:59.476Z,100667.97
2019-05-25T23:19:21.535Z,100673.34
2019-05-25T23:22:43.619Z,100671.95
2019-05-25T23:26:05.817Z,100668.47
2019-05-25T23:29:27.908Z,100670.67
2019-05-25T23:32:49.991Z,100670.45
2019-05-25T23:36:12.022Z,100669.33
2019-05-25T23:39:34.058Z,100660.34
2019-05-25T23:43:01.271Z,100652.17
2019-05-25T23:46:25.588Z,100663.22
2019-05-25T23:49:47.991Z,100663.67
2019-05-25T23:53:11.337Z,100653.31
2019-05-25T23:56:33.415Z,100653.70
2019-05-25T23:59:55.483Z,100645.63
